Tererro, New Mexico
Current Conditions -  °F | °C
As of 6:53 PM on Friday 24 Oct 2014 (Local Time) from KSAF Reporting Station
Clear Clear  
Wind Chill: 63°   Ceiling: Unl
Heat Index: 63°   Visibility: 10mi
Dew Point: 27°   Wind: 7mph
Humidity: 26%   Direction: 10°N
Pressure: 30.28"   Gusts: NA
Location:  35.76°N, 105.67°W
Report Text: KSAF 250053Z AUTO 01006KT 10SM CLR 17/M03 A3028 RMK AO2 SLP191 T01721028
Loading
Personal Weather Stations






























Interactive Weather Map
Tropical Storm Tracking
New forecast layout! Learn more

10-Day Weather Forecast

Advertisements
Track Severe Weather on mobile